createdAt,value
2017-07-26T00:01:43.374Z,47.90
2017-07-26T00:04:11.425Z,48.00
2017-07-26T00:06:39.229Z,47.40
2017-07-26T00:09:08.095Z,48.90
2017-07-26T00:11:36.090Z,48.80
2017-07-26T00:14:04.095Z,48.60
2017-07-26T00:16:32.011Z,46.70
2017-07-26T00:19:00.169Z,46.00
2017-07-26T00:21:27.892Z,45.80
2017-07-26T00:23:56.168Z,46.90
2017-07-26T00:26:24.538Z,49.10
2017-07-26T00:28:52.011Z,48.30
2017-07-26T00:31:20.303Z,48.90
2017-07-26T00:33:47.797Z,48.80
2017-07-26T00:36:15.340Z,48.90
2017-07-26T00:38:42.842Z,49.40
2017-07-26T00:41:10.358Z,49.30
2017-07-26T00:43:37.851Z,49.80
2017-07-26T00:46:05.347Z,49.50
2017-07-26T00:48:33.602Z,50.10
2017-07-26T00:51:01.090Z,50.10
2017-07-26T00:53:28.567Z,50.00
2017-07-26T00:55:56.262Z,50.00
2017-07-26T00:58:23.763Z,50.30
2017-07-26T01:00:52.009Z,50.60
2017-07-26T01:03:19.502Z,50.50
2017-07-26T01:05:47.741Z,50.90
2017-07-26T01:08:15.241Z,50.90
2017-07-26T01:10:43.513Z,52.90
2017-07-26T01:13:11.767Z,52.80
2017-07-26T01:15:39.247Z,52.80
2017-07-26T01:18:07.533Z,53.90
2017-07-26T01:20:35.786Z,53.50
2017-07-26T01:23:03.260Z,53.50
2017-07-26T01:25:31.538Z,55.50
2017-07-26T01:27:59.784Z,54.90
2017-07-26T01:30:27.261Z,54.90
2017-07-26T01:32:54.754Z,55.60
2017-07-26T01:35:22.230Z,54.90
2017-07-26T01:37:49.714Z,54.70
2017-07-26T01:40:17.214Z,55.60
2017-07-26T01:42:45.464Z,56.70
2017-07-26T01:45:12.963Z,56.70
2017-07-26T01:47:40.457Z,56.90
2017-07-26T01:50:07.934Z,56.40
2017-07-26T01:52:35.416Z,57.40
2017-07-26T01:55:03.699Z,57.30
2017-07-26T01:57:31.946Z,56.90
2017-07-26T01:59:59.427Z,56.80
2017-07-26T02:02:27.695Z,57.70
2017-07-26T02:04:55.175Z,57.60
2017-07-26T02:07:23.424Z,57.00
2017-07-26T02:09:50.931Z,56.90
2017-07-26T02:12:18.424Z,56.80
2017-07-26T02:14:45.930Z,57.50
2017-07-26T02:17:14.194Z,57.40
2017-07-26T02:19:41.676Z,57.30
2017-07-26T02:22:09.140Z,57.90
2017-07-26T02:24:36.648Z,57.70
2017-07-26T02:27:04.116Z,57.00
2017-07-26T02:29:31.598Z,57.80
2017-07-26T02:31:59.859Z,58.60
2017-07-26T02:37:04.611Z,59.40
2017-07-26T02:39:32.867Z,59.70
2017-07-26T02:42:00.351Z,59.10
2017-07-26T02:44:28.615Z,59.00
2017-07-26T02:46:56.098Z,58.90
2017-07-26T02:49:24.356Z,58.50
2017-07-26T02:51:51.845Z,58.40
2017-07-26T02:54:19.351Z,58.20
2017-07-26T02:56:46.827Z,58.10
2017-07-26T02:59:14.318Z,58.90
2017-07-26T03:01:41.801Z,56.60
2017-07-26T03:04:09.290Z,56.80
2017-07-26T03:06:36.779Z,57.70
2017-07-26T03:09:05.026Z,58.90
2017-07-26T03:11:32.511Z,58.80
2017-07-26T03:14:00.791Z,59.00
2017-07-26T03:16:29.039Z,58.60
2017-07-26T03:18:56.514Z,58.50
2017-07-26T03:21:23.998Z,58.90
2017-07-26T03:23:52.250Z,57.90
2017-07-26T03:26:19.730Z,57.90
2017-07-26T03:28:48.012Z,58.80
2017-07-26T03:31:15.499Z,58.70
2017-07-26T03:33:42.988Z,58.70
2017-07-26T03:36:10.491Z,58.50
2017-07-26T03:38:38.735Z,57.80
2017-07-26T03:41:06.208Z,57.80
2017-07-26T03:43:34.475Z,57.90
2017-07-26T03:46:01.956Z,57.80
2017-07-26T03:48:30.210Z,58.50
2017-07-26T03:50:57.703Z,58.30
2017-07-26T03:53:25.180Z,58.20
2017-07-26T03:55:52.666Z,57.10
2017-07-26T03:58:20.154Z,57.60
2017-07-26T04:00:48.408Z,57.30
2017-07-26T04:03:16.044Z,57.60
2017-07-26T04:05:43.908Z,58.00
2017-07-26T04:08:11.774Z,57.80
2017-07-26T04:10:39.560Z,57.70
2017-07-26T04:13:07.281Z,58.90
2017-07-26T04:15:36.044Z,59.40
2017-07-26T04:18:04.165Z,59.60
2017-07-26T04:20:32.917Z,59.90
2017-07-26T04:23:01.777Z,59.40
2017-07-26T04:25:30.060Z,58.30
2017-07-26T04:27:57.555Z,58.10
2017-07-26T04:30:25.824Z,59.00
2017-07-26T04:32:54.062Z,59.20
2017-07-26T04:35:21.553Z,59.10
2017-07-26T04:37:50.490Z,59.10
2017-07-26T04:40:18.823Z,59.00
2017-07-26T04:42:46.333Z,58.50
2017-07-26T04:45:13.815Z,58.60
2017-07-26T04:47:41.303Z,58.10
2017-07-26T04:50:09.632Z,59.00
2017-07-26T04:52:37.142Z,58.90
2017-07-26T04:55:05.385Z,59.40
2017-07-26T04:57:32.887Z,59.30
2017-07-26T05:00:01.164Z,57.90
2017-07-26T05:02:29.418Z,57.60
2017-07-26T05:04:56.904Z,57.60
2017-07-26T05:07:25.154Z,57.40
2017-07-26T05:09:52.655Z,57.30
2017-07-26T05:12:20.159Z,57.80
2017-07-26T05:14:47.645Z,58.30
2017-07-26T05:17:16.172Z,57.10
2017-07-26T05:19:44.098Z,56.90
2017-07-26T05:22:12.628Z,57.90
2017-07-26T05:24:40.123Z,57.80
2017-07-26T05:27:07.626Z,57.50
2017-07-26T05:29:35.132Z,56.90
2017-07-26T05:32:02.619Z,57.40
2017-07-26T05:34:30.901Z,57.10
2017-07-26T05:36:59.146Z,56.90
2017-07-26T05:39:26.647Z,56.80
2017-07-26T05:41:54.241Z,56.50
2017-07-26T05:44:22.000Z,56.50
2017-07-26T05:46:49.867Z,55.80
2017-07-26T05:49:17.363Z,55.70
2017-07-26T05:51:44.854Z,56.10
2017-07-26T05:54:13.103Z,56.00
2017-07-26T05:56:40.764Z,56.00
2017-07-26T05:59:08.303Z,55.00
2017-07-26T06:01:35.919Z,55.30
2017-07-26T06:04:03.527Z,54.50
2017-07-26T06:06:31.064Z,54.90
2017-07-26T06:08:58.541Z,52.70
2017-07-26T06:11:26.127Z,53.40
2017-07-26T06:13:53.607Z,54.20
2017-07-26T06:16:21.855Z,52.10
2017-07-26T06:18:49.650Z,52.10
2017-07-26T06:21:18.351Z,51.80
2017-07-26T06:23:46.014Z,51.60
2017-07-26T06:26:13.514Z,50.80
2017-07-26T06:28:41.000Z,51.10
2017-07-26T06:31:08.478Z,51.10
2017-07-26T06:33:37.103Z,51.00
2017-07-26T06:36:05.131Z,50.90
2017-07-26T06:38:33.710Z,48.90
2017-07-26T06:41:01.414Z,48.80
2017-07-26T06:43:32.482Z,49.40
2017-07-26T06:45:59.984Z,49.30
2017-07-26T06:48:29.295Z,49.30
2017-07-26T06:50:57.708Z,49.20
2017-07-26T06:53:25.362Z,48.90
2017-07-26T06:55:53.024Z,48.60
2017-07-26T06:58:20.510Z,49.50
2017-07-26T07:00:47.990Z,49.40
2017-07-26T07:03:15.473Z,48.00
2017-07-26T07:05:43.759Z,48.10
2017-07-26T07:08:11.252Z,48.00
2017-07-26T07:10:39.219Z,47.80
2017-07-26T07:13:06.692Z,49.70
2017-07-26T07:15:34.166Z,48.50
2017-07-26T07:18:01.657Z,47.70
2017-07-26T07:20:29.897Z,48.40
2017-07-26T07:22:57.887Z,48.30
2017-07-26T07:25:26.195Z,47.00
2017-07-26T07:27:53.674Z,46.90
2017-07-26T07:30:21.238Z,47.50
2017-07-26T07:32:48.753Z,48.00
2017-07-26T07:35:17.214Z,46.60
2017-07-26T07:37:46.105Z,46.10
2017-07-26T07:40:14.669Z,45.40
2017-07-26T07:42:42.526Z,44.60
2017-07-26T07:45:11.123Z,44.60
2017-07-26T07:47:38.974Z,44.50
2017-07-26T07:50:07.584Z,43.90
2017-07-26T07:52:35.469Z,43.90
2017-07-26T07:55:03.483Z,44.60
2017-07-26T07:57:31.225Z,44.20
2017-07-26T08:00:00.120Z,41.70
2017-07-26T08:02:28.601Z,42.20
2017-07-26T08:04:57.019Z,42.30
2017-07-26T08:07:24.661Z,42.90
2017-07-26T08:09:52.195Z,42.70
2017-07-26T08:12:19.739Z,41.80
2017-07-26T08:14:47.223Z,40.70
2017-07-26T08:17:15.713Z,43.40
2017-07-26T08:19:43.965Z,41.10
2017-07-26T08:22:11.449Z,40.90
2017-07-26T08:24:39.712Z,41.10
2017-07-26T08:27:07.956Z,41.20
2017-07-26T08:29:35.433Z,41.20
2017-07-26T08:32:02.932Z,41.00
2017-07-26T08:34:31.299Z,41.90
2017-07-26T08:36:58.790Z,40.50
2017-07-26T08:39:26.508Z,40.10
2017-07-26T08:41:54.905Z,40.30
2017-07-26T08:44:22.377Z,39.40
2017-07-26T08:46:49.883Z,39.90
2017-07-26T08:49:17.358Z,39.00
2017-07-26T08:51:44.835Z,39.20
2017-07-26T08:54:13.110Z,40.80
2017-07-26T08:56:41.801Z,39.30
2017-07-26T08:59:09.666Z,39.40
2017-07-26T09:01:37.922Z,38.90
2017-07-26T09:04:05.406Z,38.90
2017-07-26T09:06:33.329Z,39.60
2017-07-26T09:09:00.903Z,37.70
2017-07-26T09:11:28.505Z,37.70
2017-07-26T09:13:55.999Z,37.80
2017-07-26T09:16:23.510Z,37.40
2017-07-26T09:18:51.755Z,36.30
2017-07-26T09:21:19.258Z,36.20
2017-07-26T09:23:46.742Z,37.20
2017-07-26T09:26:14.231Z,37.40
2017-07-26T09:28:41.705Z,35.90
2017-07-26T09:31:09.204Z,36.40
2017-07-26T09:33:36.682Z,36.00
2017-07-26T09:36:04.165Z,35.10
2017-07-26T09:38:32.148Z,35.60
2017-07-26T09:40:59.772Z,36.20
2017-07-26T09:43:27.254Z,36.20
2017-07-26T09:45:54.799Z,35.50
2017-07-26T09:48:22.277Z,32.50
2017-07-26T09:50:49.762Z,33.40
2017-07-26T09:53:17.547Z,32.80
2017-07-26T09:55:45.113Z,32.40
2017-07-26T09:58:12.598Z,33.00
2017-07-26T10:00:40.099Z,31.20
2017-07-26T10:03:07.578Z,31.10
2017-07-26T10:05:35.822Z,31.70
2017-07-26T10:08:03.313Z,31.70
2017-07-26T10:10:31.546Z,31.70
2017-07-26T10:12:59.022Z,31.70
2017-07-26T10:15:26.950Z,32.20
2017-07-26T10:17:55.316Z,32.50
2017-07-26T10:20:22.991Z,29.80
2017-07-26T10:22:50.636Z,30.30
2017-07-26T10:25:18.227Z,30.50
2017-07-26T10:27:45.711Z,31.80
2017-07-26T10:30:13.192Z,31.70
2017-07-26T10:32:40.669Z,31.90
2017-07-26T10:35:08.153Z,32.60
2017-07-26T10:37:35.653Z,32.50
2017-07-26T10:40:14.027Z,32.20
2017-07-26T10:45:02.647Z,32.90
2017-07-26T10:47:30.899Z,32.90
2017-07-26T10:49:58.364Z,32.20
2017-07-26T10:52:25.861Z,32.00
2017-07-26T10:54:53.355Z,32.50
2017-07-26T10:57:20.848Z,31.50
2017-07-26T10:59:48.345Z,32.80
2017-07-26T11:02:15.838Z,32.80
2017-07-26T11:04:43.386Z,31.80
2017-07-26T11:07:10.893Z,31.30
2017-07-26T11:09:38.375Z,31.50
2017-07-26T11:12:05.865Z,32.50
2017-07-26T11:14:33.353Z,30.50
2017-07-26T11:17:00.837Z,31.00
2017-07-26T11:19:28.319Z,32.20
2017-07-26T11:21:55.821Z,30.80
2017-07-26T11:24:23.309Z,29.00
2017-07-26T11:26:50.785Z,32.20
2017-07-26T11:29:19.037Z,29.70
2017-07-26T11:31:46.518Z,29.60
2017-07-26T11:34:14.752Z,28.90
2017-07-26T11:36:42.470Z,28.80
2017-07-26T11:39:09.936Z,29.30
2017-07-26T11:41:37.578Z,29.10
2017-07-26T11:44:05.920Z,29.00
2017-07-26T11:46:33.406Z,28.90
2017-07-26T11:49:01.728Z,27.40
2017-07-26T11:51:29.468Z,27.30
2017-07-26T11:53:56.937Z,30.70
2017-07-26T11:56:24.511Z,28.30
2017-07-26T11:58:52.140Z,25.90
2017-07-26T12:01:20.421Z,25.80
2017-07-26T12:03:48.759Z,25.90
2017-07-26T12:06:16.520Z,25.90
2017-07-26T12:08:44.009Z,27.10
2017-07-26T12:11:11.500Z,26.00
2017-07-26T12:13:38.999Z,25.70
2017-07-26T12:16:06.671Z,26.20
2017-07-26T12:18:34.295Z,28.80
2017-07-26T12:21:01.790Z,27.40
2017-07-26T12:23:29.270Z,28.40
2017-07-26T12:25:56.749Z,26.20
2017-07-26T12:28:24.251Z,25.80
2017-07-26T12:30:51.734Z,25.80
2017-07-26T12:33:19.214Z,25.50
2017-07-26T12:35:47.480Z,26.00
2017-07-26T12:38:14.995Z,26.00
2017-07-26T12:40:42.474Z,25.70
2017-07-26T12:43:09.980Z,26.50
2017-07-26T12:45:37.461Z,25.90
2017-07-26T12:48:04.963Z,26.00
2017-07-26T12:50:32.458Z,24.50
2017-07-26T12:52:59.945Z,25.40
2017-07-26T12:55:27.438Z,23.90
2017-07-26T12:57:54.934Z,26.00
2017-07-26T13:00:22.422Z,25.90
2017-07-26T13:02:49.912Z,25.90
2017-07-26T13:05:17.394Z,25.90
2017-07-26T13:07:44.885Z,24.90
2017-07-26T13:10:12.377Z,24.70
2017-07-26T13:12:40.648Z,24.80
2017-07-26T13:15:08.822Z,26.80
2017-07-26T13:17:36.943Z,24.70
2017-07-26T13:20:04.431Z,25.40
2017-07-26T13:22:32.091Z,25.00
2017-07-26T13:25:01.097Z,24.90
2017-07-26T13:27:28.590Z,23.70
2017-07-26T13:29:56.077Z,24.90
2017-07-26T13:32:24.313Z,24.60
2017-07-26T13:34:51.808Z,24.60
2017-07-26T13:37:19.287Z,23.20
2017-07-26T13:39:46.783Z,23.30
2017-07-26T13:42:14.288Z,23.70
2017-07-26T13:44:42.544Z,23.60
2017-07-26T13:47:10.022Z,23.60
2017-07-26T13:49:37.516Z,23.00
2017-07-26T13:52:05.011Z,23.20
2017-07-26T13:54:32.505Z,22.90
2017-07-26T13:57:00.776Z,24.90
2017-07-26T13:59:29.048Z,24.50
2017-07-26T14:01:56.573Z,24.40
2017-07-26T14:04:24.063Z,24.30
2017-07-26T14:06:51.551Z,23.60
2017-07-26T14:09:19.032Z,24.10
2017-07-26T14:11:46.529Z,23.70
2017-07-26T14:14:14.012Z,23.90
2017-07-26T14:16:42.259Z,26.20
2017-07-26T14:19:09.754Z,25.70
2017-07-26T14:21:37.247Z,24.60
2017-07-26T14:24:04.729Z,24.20
2017-07-26T14:26:33.109Z,24.60
2017-07-26T14:29:00.595Z,24.10
2017-07-26T14:31:28.846Z,23.90
2017-07-26T14:33:56.519Z,23.90
2017-07-26T14:36:24.620Z,24.30
2017-07-26T14:38:53.170Z,24.60
2017-07-26T14:41:21.121Z,24.60
2017-07-26T14:43:48.796Z,25.30
2017-07-26T14:46:16.327Z,25.30
2017-07-26T14:48:43.963Z,26.20
2017-07-26T14:51:12.208Z,27.90
2017-07-26T14:53:39.687Z,27.90
2017-07-26T14:56:07.176Z,27.70
2017-07-26T14:58:34.886Z,26.10
2017-07-26T15:01:02.380Z,26.30
2017-07-26T15:03:30.656Z,27.50
2017-07-26T15:05:58.154Z,27.40
2017-07-26T15:08:25.627Z,27.00
2017-07-26T15:10:53.223Z,27.30
2017-07-26T15:13:20.704Z,27.90
2017-07-26T15:15:48.518Z,27.50
2017-07-26T15:18:16.945Z,26.10
2017-07-26T15:20:45.200Z,25.40
2017-07-26T15:23:13.326Z,25.30
2017-07-26T15:25:41.139Z,26.60
2017-07-26T15:28:09.370Z,25.30
2017-07-26T15:30:37.321Z,26.60
2017-07-26T15:33:05.603Z,26.90
2017-07-26T15:35:33.242Z,25.60
2017-07-26T15:38:01.708Z,27.60
2017-07-26T15:40:29.330Z,27.00
2017-07-26T15:42:57.296Z,26.20
2017-07-26T15:45:24.935Z,28.20
2017-07-26T15:47:52.752Z,28.80
2017-07-26T15:50:20.615Z,26.40
2017-07-26T15:52:48.559Z,26.70
2017-07-26T15:55:16.966Z,27.60
2017-07-26T15:57:44.459Z,28.20
2017-07-26T16:00:12.718Z,30.00
2017-07-26T16:02:40.285Z,30.00
2017-07-26T16:05:07.769Z,29.20
2017-07-26T16:07:36.051Z,29.30
2017-07-26T16:10:03.547Z,29.20
2017-07-26T16:12:31.035Z,29.60
2017-07-26T16:14:58.583Z,28.70
2017-07-26T16:17:27.151Z,29.50
2017-07-26T16:19:54.696Z,28.10
2017-07-26T16:22:22.275Z,29.00
2017-07-26T16:24:50.144Z,28.40
2017-07-26T16:27:17.654Z,29.30
2017-07-26T16:29:46.678Z,28.70
2017-07-26T16:32:14.445Z,28.80
2017-07-26T16:34:42.778Z,28.30
2017-07-26T16:37:10.896Z,28.00
2017-07-26T16:39:38.869Z,28.50
2017-07-26T16:42:06.947Z,28.60
2017-07-26T16:44:35.315Z,28.40
2017-07-26T16:47:02.867Z,27.80
2017-07-26T16:49:30.367Z,27.90
2017-07-26T16:51:57.863Z,28.50
2017-07-26T16:54:25.369Z,29.20
2017-07-26T16:56:52.842Z,28.50
2017-07-26T16:59:20.479Z,28.70
2017-07-26T17:01:48.008Z,28.20
2017-07-26T17:04:16.359Z,28.10
2017-07-26T17:06:43.867Z,28.10
2017-07-26T17:09:11.420Z,28.10
2017-07-26T17:11:38.997Z,28.80
2017-07-26T17:14:06.475Z,29.70
2017-07-26T17:16:33.971Z,29.50
2017-07-26T17:19:01.455Z,29.10
2017-07-26T17:21:28.943Z,30.00
2017-07-26T17:23:56.441Z,29.20
2017-07-26T17:26:23.928Z,29.30
2017-07-26T17:28:51.430Z,30.70
2017-07-26T17:31:18.967Z,30.20
2017-07-26T17:33:47.460Z,30.70
2017-07-26T17:36:15.530Z,30.00
2017-07-26T17:38:43.198Z,30.60
2017-07-26T17:41:11.335Z,30.60
2017-07-26T17:43:38.942Z,31.80
2017-07-26T17:46:06.439Z,31.40
2017-07-26T17:48:33.923Z,31.30
2017-07-26T17:51:01.430Z,31.00
2017-07-26T17:53:29.436Z,32.10
2017-07-26T17:55:57.882Z,31.90
2017-07-26T17:58:25.628Z,31.80
2017-07-26T18:00:55.076Z,32.90
2017-07-26T18:03:23.198Z,32.50
2017-07-26T18:05:51.216Z,32.70
2017-07-26T18:08:19.292Z,33.20
2017-07-26T18:10:47.487Z,33.10
2017-07-26T18:13:15.929Z,30.50
2017-07-26T18:15:44.031Z,30.40
2017-07-26T18:18:12.940Z,31.90
2017-07-26T18:20:41.039Z,31.90
2017-07-26T18:23:10.772Z,32.00
2017-07-26T18:25:39.710Z,32.10
2017-07-26T18:28:08.328Z,32.20
2017-07-26T18:30:36.401Z,32.20
2017-07-26T18:33:04.479Z,32.70
2017-07-26T18:35:31.962Z,34.00
2017-07-26T18:37:59.479Z,33.40
2017-07-26T18:40:26.975Z,32.90
2017-07-26T18:42:54.754Z,33.00
2017-07-26T18:45:22.376Z,32.70
2017-07-26T18:47:50.411Z,32.10
2017-07-26T18:50:18.658Z,32.40
2017-07-26T18:52:46.820Z,32.30
2017-07-26T18:55:15.077Z,33.00
2017-07-26T18:57:43.225Z,33.30
2017-07-26T19:00:11.770Z,34.00
2017-07-26T19:02:39.544Z,35.50
2017-07-26T19:05:07.021Z,36.70
2017-07-26T19:07:34.512Z,36.10
2017-07-26T19:10:02.020Z,37.50
2017-07-26T19:12:30.466Z,37.40
2017-07-26T19:14:58.326Z,37.40
2017-07-26T19:17:25.940Z,37.60
2017-07-26T19:19:53.649Z,37.50
2017-07-26T19:22:21.778Z,37.40
2017-07-26T19:24:49.496Z,35.80
2017-07-26T19:27:17.534Z,36.60
2017-07-26T19:29:46.503Z,37.50
2017-07-26T19:32:14.118Z,37.50
2017-07-26T19:34:42.294Z,37.50
2017-07-26T19:37:10.334Z,37.40
2017-07-26T19:39:39.263Z,36.80
2017-07-26T19:42:06.985Z,36.80
2017-07-26T19:44:36.364Z,37.20
2017-07-26T19:47:04.011Z,37.20
2017-07-26T19:49:31.535Z,37.00
2017-07-26T19:51:59.378Z,36.80
2017-07-26T19:54:27.680Z,35.70
2017-07-26T19:56:55.665Z,37.00
2017-07-26T19:59:23.942Z,37.10
2017-07-26T20:01:52.406Z,36.90
2017-07-26T20:04:20.199Z,36.70
2017-07-26T20:06:48.671Z,36.10
2017-07-26T20:09:17.377Z,36.80
2017-07-26T20:11:44.906Z,36.60
2017-07-26T20:14:12.983Z,35.90
2017-07-26T20:16:40.481Z,35.80
2017-07-26T20:19:09.011Z,37.00
2017-07-26T20:21:36.803Z,37.10
2017-07-26T20:24:05.124Z,36.80
2017-07-26T20:26:32.651Z,35.80
2017-07-26T20:29:00.199Z,36.80
2017-07-26T20:31:27.703Z,35.90
2017-07-26T20:33:55.958Z,37.20
2017-07-26T20:36:23.495Z,37.00
2017-07-26T20:38:50.985Z,37.70
2017-07-26T20:41:18.472Z,37.70
2017-07-26T20:43:46.141Z,36.50
2017-07-26T20:46:13.647Z,37.10
2017-07-26T20:48:41.153Z,37.30
2017-07-26T20:51:09.482Z,36.60
2017-07-26T20:53:37.306Z,36.60
2017-07-26T20:56:04.804Z,37.10
2017-07-26T20:58:32.541Z,37.40
2017-07-26T21:01:00.535Z,36.20
2017-07-26T21:03:28.030Z,37.30
2017-07-26T21:05:56.123Z,37.60
2017-07-26T21:08:24.713Z,37.10
2017-07-26T21:10:53.133Z,37.20
2017-07-26T21:13:21.001Z,36.50
2017-07-26T21:15:48.500Z,36.90
2017-07-26T21:18:16.013Z,37.00
2017-07-26T21:20:43.627Z,36.90
2017-07-26T21:23:11.396Z,37.70
2017-07-26T21:25:39.019Z,37.00
2017-07-26T21:28:06.525Z,38.00
2017-07-26T21:30:34.771Z,38.20
2017-07-26T21:33:02.249Z,37.70
2017-07-26T21:35:29.754Z,37.40
2017-07-26T21:37:57.508Z,37.80
2017-07-26T21:40:24.999Z,38.00
2017-07-26T21:42:53.032Z,38.70
2017-07-26T21:45:20.973Z,38.00
2017-07-26T21:47:48.695Z,39.30
2017-07-26T21:50:16.617Z,38.20
2017-07-26T21:52:45.370Z,38.90
2017-07-26T21:55:13.264Z,38.00
2017-07-26T21:57:40.965Z,38.10
2017-07-26T22:00:08.778Z,37.90
2017-07-26T22:02:36.442Z,38.10
2017-07-26T22:05:03.959Z,38.10
2017-07-26T22:07:31.429Z,37.20
2017-07-26T22:09:59.525Z,37.20
2017-07-26T22:12:27.264Z,38.00
2017-07-26T22:14:55.745Z,38.40
2017-07-26T22:17:23.261Z,37.20
2017-07-26T22:19:50.764Z,37.00
2017-07-26T22:22:18.244Z,37.90
2017-07-26T22:24:45.722Z,37.70
2017-07-26T22:27:13.226Z,38.70
2017-07-26T22:29:40.720Z,38.60
2017-07-26T22:32:08.195Z,38.00
2017-07-26T22:34:35.726Z,37.50
2017-07-26T22:37:03.227Z,38.30
2017-07-26T22:39:30.739Z,38.00
2017-07-26T22:41:58.238Z,37.60
2017-07-26T22:44:25.718Z,38.10
2017-07-26T22:46:53.198Z,38.60
2017-07-26T22:49:20.719Z,39.20
2017-07-26T22:51:48.189Z,39.60
2017-07-26T22:54:15.673Z,40.40
2017-07-26T22:56:43.161Z,40.50
2017-07-26T22:59:10.641Z,41.00
2017-07-26T23:01:38.254Z,41.00
2017-07-26T23:04:05.998Z,41.40
2017-07-26T23:06:34.252Z,41.10
2017-07-26T23:09:01.743Z,40.90
2017-07-26T23:11:29.251Z,41.40
2017-07-26T23:13:57.743Z,42.50
2017-07-26T23:16:25.218Z,42.50
2017-07-26T23:18:52.926Z,40.90
2017-07-26T23:21:20.423Z,41.00
2017-07-26T23:23:47.897Z,42.00
2017-07-26T23:26:15.399Z,40.30
2017-07-26T23:28:42.882Z,40.10
2017-07-26T23:31:10.363Z,39.80
2017-07-26T23:33:37.854Z,39.30
2017-07-26T23:36:06.103Z,39.30
2017-07-26T23:38:33.595Z,39.20
2017-07-26T23:41:01.864Z,39.30
2017-07-26T23:43:30.110Z,38.60
2017-07-26T23:45:57.581Z,39.10
2017-07-26T23:48:25.066Z,39.40
2017-07-26T23:50:53.310Z,39.60
2017-07-26T23:53:20.793Z,39.60
2017-07-26T23:55:49.059Z,39.10
2017-07-26T23:58:16.538Z,39.10
